createdAt,value
2023-03-13T00:04:38.240Z,96589.75
2023-03-13T00:09:41.680Z,96593.25
2023-03-13T00:14:49.241Z,96591.56
2023-03-13T00:19:52.730Z,96569.56
2023-03-13T00:24:56.039Z,96579.75
2023-03-13T00:30:00.993Z,96562.22
2023-03-13T00:35:04.373Z,96559.75
2023-03-13T00:40:09.299Z,96554.88
2023-03-13T00:45:14.000Z,96532.19
2023-03-13T00:50:22.601Z,96529.00
2023-03-13T00:55:26.115Z,96517.91
2023-03-13T01:00:31.112Z,96517.13
2023-03-13T01:05:34.688Z,96511.31
2023-03-13T01:10:37.993Z,96499.22
2023-03-13T01:15:42.696Z,96497.16
2023-03-13T01:20:46.018Z,96494.72
2023-03-13T01:25:50.778Z,96496.59
2023-03-13T01:30:55.787Z,96490.66
2023-03-13T01:36:02.851Z,96504.19
2023-03-13T01:41:07.501Z,96480.47
2023-03-13T01:46:16.563Z,96468.75
2023-03-13T01:51:30.764Z,96463.47
2023-03-13T01:56:43.757Z,96475.00
2023-03-13T02:01:52.874Z,96460.91
2023-03-13T02:07:05.143Z,96441.91
2023-03-13T02:12:33.823Z,96444.25
2023-03-13T02:17:43.311Z,96421.50
2023-03-13T02:22:51.437Z,96432.06
2023-03-13T02:27:59.929Z,96431.78
2023-03-13T02:33:05.752Z,96407.13
2023-03-13T02:38:15.077Z,96406.25
2023-03-13T02:43:25.996Z,96399.31
2023-03-13T02:48:34.136Z,96393.50
2023-03-13T02:53:39.140Z,96393.38
2023-03-13T02:58:51.358Z,96389.09
2023-03-13T03:03:58.986Z,96382.53
2023-03-13T03:09:02.345Z,96385.75
2023-03-13T03:14:11.163Z,96379.63
2023-03-13T03:19:18.724Z,96364.25
2023-03-13T03:24:22.172Z,96364.09
2023-03-13T03:29:27.792Z,96348.00
2023-03-13T03:34:32.477Z,96337.03
2023-03-13T03:39:36.677Z,96336.88
2023-03-13T03:44:42.829Z,96325.78
2023-03-13T03:49:47.429Z,96317.47
2023-03-13T03:54:51.895Z,96297.34
2023-03-13T03:59:57.757Z,96293.19
2023-03-13T04:05:01.529Z,96276.50
2023-03-13T04:10:11.364Z,96277.66
2023-03-13T04:15:22.391Z,96255.97
2023-03-13T04:20:26.214Z,96224.19
2023-03-13T04:25:30.079Z,96237.50
2023-03-13T04:30:38.106Z,96221.56
2023-03-13T04:35:59.782Z,96216.13
2023-03-13T04:41:22.339Z,96207.53
2023-03-13T04:47:05.915Z,96204.63
2023-03-13T04:52:15.560Z,96186.75
2023-03-13T04:57:41.860Z,96167.31
2023-03-13T05:03:21.852Z,96163.59
2023-03-13T05:08:37.299Z,96153.88
2023-03-13T05:14:09.410Z,96148.88
2023-03-13T05:19:33.843Z,96119.63
2023-03-13T05:24:37.416Z,96102.44
2023-03-13T05:30:04.698Z,96079.38
2023-03-13T05:35:16.732Z,96074.69
2023-03-13T05:40:42.022Z,96092.81
2023-03-13T05:45:45.787Z,96086.38
2023-03-13T05:51:03.206Z,96080.25
2023-03-13T05:56:27.944Z,96082.31
2023-03-13T06:01:54.097Z,96078.69
2023-03-13T06:07:11.452Z,96034.41
2023-03-13T06:12:14.981Z,96026.03
2023-03-13T06:17:18.420Z,96009.44
2023-03-13T06:22:23.270Z,96024.06
2023-03-13T06:27:26.592Z,96022.47
2023-03-13T06:32:30.156Z,96029.97
2023-03-13T06:37:34.898Z,96034.91
2023-03-13T06:42:38.302Z,96044.47
2023-03-13T06:47:41.962Z,96021.28
2023-03-13T06:52:47.892Z,96038.50
2023-03-13T06:57:52.369Z,96026.53
2023-03-13T07:02:55.666Z,96026.63
2023-03-13T07:08:00.641Z,96028.13
2023-03-13T07:13:05.612Z,96002.41
2023-03-13T07:18:09.001Z,96000.91
2023-03-13T07:23:13.838Z,96010.66
2023-03-13T07:28:17.269Z,95984.09
2023-03-13T07:33:20.904Z,95986.53
2023-03-13T07:38:25.887Z,96012.22
2023-03-13T07:43:29.499Z,96005.06
2023-03-13T07:48:35.457Z,96026.63
2023-03-13T07:53:40.096Z,96019.91
2023-03-13T07:58:44.675Z,96015.88
2023-03-13T08:03:51.242Z,96031.13
2023-03-13T08:08:59.468Z,96032.19
2023-03-13T08:14:03.239Z,96033.56
2023-03-13T08:19:06.649Z,96024.41
2023-03-13T08:24:13.494Z,96028.91
2023-03-13T08:29:17.487Z,96021.75
2023-03-13T08:34:21.321Z,96031.75
2023-03-13T08:39:26.178Z,96026.78
2023-03-13T08:44:30.152Z,96010.28
2023-03-13T08:49:33.650Z,96011.66
2023-03-13T08:54:38.372Z,95990.06
2023-03-13T08:59:41.497Z,95984.38
2023-03-13T09:04:44.683Z,95987.47
2023-03-13T09:09:49.486Z,96018.84
2023-03-13T09:14:53.689Z,96019.53
2023-03-13T09:20:00.657Z,96022.69
2023-03-13T09:25:06.801Z,96047.03
2023-03-13T09:30:11.979Z,96055.28
2023-03-13T09:35:15.878Z,96075.97
2023-03-13T09:40:24.631Z,96072.03
2023-03-13T09:45:34.250Z,96072.03
2023-03-13T09:50:44.397Z,96065.16
2023-03-13T09:55:50.360Z,96046.44
2023-03-13T10:00:58.158Z,96062.72
2023-03-13T10:06:05.993Z,96065.75
2023-03-13T10:11:13.814Z,96044.38
2023-03-13T10:16:21.756Z,96034.91
2023-03-13T10:21:33.686Z,96025.81
2023-03-13T10:26:39.079Z,96005.06
2023-03-13T10:31:48.455Z,96006.50
2023-03-13T10:36:56.851Z,96003.94
2023-03-13T10:42:12.315Z,96018.59
2023-03-13T10:47:17.365Z,95989.56
2023-03-13T10:52:42.530Z,95988.88
2023-03-13T10:57:57.600Z,95974.44
2023-03-13T11:03:01.591Z,95966.06
2023-03-13T11:08:30.407Z,95967.19
2023-03-13T11:13:43.343Z,95988.94
2023-03-13T11:19:04.130Z,95984.13
2023-03-13T11:24:14.869Z,95968.00
2023-03-13T11:29:28.537Z,95971.03
2023-03-13T11:34:42.212Z,95962.78
2023-03-13T11:39:56.508Z,95963.91
2023-03-13T11:45:09.917Z,95935.38
2023-03-13T11:50:21.581Z,95933.84
2023-03-13T11:55:52.957Z,95914.69
2023-03-13T12:01:01.801Z,95935.06
2023-03-13T12:06:27.112Z,95922.03
2023-03-13T12:11:38.254Z,95901.59
2023-03-13T12:16:46.691Z,95901.03
2023-03-13T12:21:53.968Z,95893.75
2023-03-13T12:27:02.648Z,95883.97
2023-03-13T12:32:14.284Z,95889.00
2023-03-13T12:37:26.208Z,95871.44
2023-03-13T12:42:44.424Z,95858.09
2023-03-13T12:48:18.332Z,95868.53
2023-03-13T12:53:36.943Z,95849.78
2023-03-13T12:58:46.242Z,95851.22
2023-03-13T13:04:00.105Z,95826.91
2023-03-13T13:09:25.501Z,95816.13
2023-03-13T13:15:07.329Z,95800.28
2023-03-13T13:20:41.931Z,95801.94
2023-03-13T13:25:47.003Z,95786.56
2023-03-13T13:30:56.397Z,95786.19
2023-03-13T13:36:41.298Z,95771.16
2023-03-13T13:41:44.826Z,95760.59
2023-03-13T13:46:48.600Z,95748.38
2023-03-13T13:52:36.530Z,95731.63
2023-03-13T13:57:41.043Z,95711.75
2023-03-13T14:02:51.424Z,95683.78
2023-03-13T14:08:04.723Z,95687.91
2023-03-13T14:13:17.221Z,95661.31
2023-03-13T14:18:24.246Z,95687.34
2023-03-13T14:23:39.926Z,95667.09
2023-03-13T14:28:45.402Z,95662.56
2023-03-13T14:33:49.266Z,95675.66
2023-03-13T14:38:56.287Z,95658.50
2023-03-13T14:44:08.046Z,95670.16
2023-03-13T14:49:18.936Z,95677.81
2023-03-13T14:54:29.510Z,95664.66
2023-03-13T14:59:33.464Z,95670.78
2023-03-13T15:04:59.500Z,95654.88
2023-03-13T15:10:19.887Z,95642.66
2023-03-13T15:15:23.342Z,95643.13
2023-03-13T15:20:29.028Z,95612.78
2023-03-13T15:25:34.397Z,95618.47
2023-03-13T15:30:38.164Z,95614.66
2023-03-13T15:35:41.587Z,95616.00
2023-03-13T15:40:50.014Z,95585.59
2023-03-13T15:45:53.808Z,95570.97
2023-03-13T15:50:59.609Z,95568.81
2023-03-13T15:56:11.730Z,95552.97
2023-03-13T16:01:17.190Z,95542.38
2023-03-13T16:06:31.083Z,95521.03
2023-03-13T16:11:35.976Z,95519.59
2023-03-13T16:16:40.609Z,95511.19
2023-03-13T16:21:48.611Z,95501.41
2023-03-13T16:26:53.950Z,95494.13
2023-03-13T16:31:57.373Z,95508.47
2023-03-13T16:37:01.417Z,95522.31
2023-03-13T16:42:06.644Z,95530.09
2023-03-13T16:47:20.631Z,95564.44
2023-03-13T16:52:24.293Z,95578.31
2023-03-13T16:57:29.319Z,95634.63
2023-03-13T17:09:45.739Z,95662.00
2023-03-13T17:14:50.391Z,95646.69
2023-03-13T17:19:55.977Z,95678.13
2023-03-13T17:25:00.030Z,95650.38
2023-03-13T17:30:07.449Z,95576.50
2023-03-13T17:35:11.382Z,95572.97
2023-03-13T17:40:21.633Z,95550.47
2023-03-13T17:45:26.991Z,95563.00
2023-03-13T17:50:31.366Z,95540.81
2023-03-13T17:55:34.444Z,95505.75
2023-03-13T18:00:45.139Z,95477.91
2023-03-13T18:05:48.708Z,95492.34
2023-03-13T18:10:52.395Z,95478.28
2023-03-13T18:15:57.238Z,95461.81
2023-03-13T18:21:00.709Z,95447.31
2023-03-13T18:26:18.070Z,95448.81
2023-03-13T18:31:23.666Z,95441.72
2023-03-13T18:36:28.308Z,95447.94
2023-03-13T18:41:32.137Z,95442.50
2023-03-13T18:46:37.175Z,95437.91
2023-03-13T18:51:42.107Z,95420.25
2023-03-13T18:56:46.116Z,95410.75
2023-03-13T19:01:51.477Z,95380.81
2023-03-13T19:06:54.653Z,95377.75
2023-03-13T19:11:58.735Z,95353.44
2023-03-13T19:17:06.051Z,95329.09
2023-03-13T19:22:14.269Z,95308.50
2023-03-13T19:27:18.092Z,95303.38
2023-03-13T19:32:23.653Z,95300.94
2023-03-13T19:37:28.329Z,95314.72
2023-03-13T19:42:31.610Z,95307.00
2023-03-13T19:47:38.251Z,95298.63
2023-03-13T19:52:42.466Z,95300.66
2023-03-13T19:57:46.172Z,95317.81
2023-03-13T20:02:52.329Z,95347.25
2023-03-13T20:07:55.910Z,95357.69
2023-03-13T20:12:59.287Z,95381.72
2023-03-13T20:18:04.633Z,95411.81
2023-03-13T20:23:08.546Z,95430.44
2023-03-13T20:28:11.981Z,95458.06
2023-03-13T20:33:16.974Z,95475.06
2023-03-13T20:38:20.536Z,95504.25
2023-03-13T20:43:24.545Z,95516.53
2023-03-13T20:48:30.026Z,95534.66
2023-03-13T20:53:36.409Z,95520.47
2023-03-13T20:58:40.293Z,95515.13
2023-03-13T21:03:44.826Z,95512.16
2023-03-13T21:08:48.869Z,95509.94
2023-03-13T21:13:52.527Z,95461.63
2023-03-13T21:18:57.343Z,95417.13
2023-03-13T21:24:00.565Z,95383.50
2023-03-13T21:29:04.038Z,95294.06
2023-03-13T21:34:08.675Z,95230.97
2023-03-13T21:39:12.464Z,95245.69
2023-03-13T21:44:19.565Z,95247.19
2023-03-13T21:49:24.476Z,95237.13
2023-03-13T21:54:27.774Z,95216.13
2023-03-13T21:59:31.936Z,95214.03
2023-03-13T22:04:36.437Z,95233.78
2023-03-13T22:09:39.494Z,95259.34
2023-03-13T22:14:42.719Z,95267.69
2023-03-13T22:19:47.575Z,95253.97
2023-03-13T22:24:50.819Z,95250.72
2023-03-13T22:29:54.108Z,95240.75
2023-03-13T22:34:58.692Z,95242.19
2023-03-13T22:40:01.941Z,95230.53
2023-03-13T22:45:06.015Z,95234.84
2023-03-13T22:50:12.285Z,95234.66
2023-03-13T22:55:15.432Z,95208.66
2023-03-13T23:00:19.378Z,95218.31
2023-03-13T23:05:23.902Z,95202.72
2023-03-13T23:10:27.105Z,95195.25
2023-03-13T23:15:42.960Z,95178.25
2023-03-13T23:20:55.296Z,95159.63
2023-03-13T23:26:00.169Z,95159.38
2023-03-13T23:31:10.195Z,95130.94
2023-03-13T23:36:17.335Z,95145.47
2023-03-13T23:41:21.394Z,95144.69
2023-03-13T23:46:26.941Z,95131.84
2023-03-13T23:51:31.539Z,95129.38
2023-03-13T23:56:34.714Z,95119.53
